sensor_id;sensor_type;location;lat;lon;timestamp;temperature;humidity
74940;HTU21D;63505;45.226;37.908;2023-04-30T00:00:17;9.99;83.23
74940;HTU21D;63505;45.226;37.908;2023-04-30T00:02:43;10.01;83.20
74940;HTU21D;63505;45.226;37.908;2023-04-30T00:05:08;10.04;83.17
74940;HTU21D;63505;45.226;37.908;2023-04-30T00:07:34;10.08;83.13
74940;HTU21D;63505;45.226;37.908;2023-04-30T00:10:00;10.08;83.13
74940;HTU21D;63505;45.226;37.908;2023-04-30T00:12:26;10.12;83.10
74940;HTU21D;63505;45.226;37.908;2023-04-30T00:14:52;10.14;83.07
74940;HTU21D;63505;45.226;37.908;2023-04-30T00:17:20;10.16;83.04
74940;HTU21D;63505;45.226;37.908;2023-04-30T00:19:46;10.12;83.03
74940;HTU21D;63505;45.226;37.908;2023-04-30T00:22:12;10.10;83.02
74940;HTU21D;63505;45.226;37.908;2023-04-30T00:24:38;10.06;83.06
74940;HTU21D;63505;45.226;37.908;2023-04-30T00:27:04;9.99;83.10
74940;HTU21D;63505;45.226;37.908;2023-04-30T00:29:30;9.93;83.14
74940;HTU21D;63505;45.226;37.908;2023-04-30T00:31:56;9.91;83.20
74940;HTU21D;63505;45.226;37.908;2023-04-30T00:34:22;9.86;83.20
74940;HTU21D;63505;45.226;37.908;2023-04-30T00:36:48;9.83;83.23
74940;HTU21D;63505;45.226;37.908;2023-04-30T00:39:14;9.81;83.25
74940;HTU21D;63505;45.226;37.908;2023-04-30T00:41:41;9.81;83.25
74940;HTU21D;63505;45.226;37.908;2023-04-30T00:44:07;9.79;83.18
74940;HTU21D;63505;45.226;37.908;2023-04-30T00:46:33;9.77;83.20
74940;HTU21D;63505;45.226;37.908;2023-04-30T00:48:59;9.74;83.20
74940;HTU21D;63505;45.226;37.908;2023-04-30T00:51:31;9.69;83.21
74940;HTU21D;63505;45.226;37.908;2023-04-30T00:54:00;9.64;83.24
74940;HTU21D;63505;45.226;37.908;2023-04-30T00:56:28;9.57;83.32
74940;HTU21D;63505;45.226;37.908;2023-04-30T00:58:55;9.52;83.36
74940;HTU21D;63505;45.226;37.908;2023-04-30T01:01:25;9.46;83.40
74940;HTU21D;63505;45.226;37.908;2023-04-30T01:03:54;9.40;83.43
74940;HTU21D;63505;45.226;37.908;2023-04-30T01:06:20;9.37;83.45
74940;HTU21D;63505;45.226;37.908;2023-04-30T01:08:46;9.34;83.42
74940;HTU21D;63505;45.226;37.908;2023-04-30T01:14:08;9.30;83.40
74940;HTU21D;63505;45.226;37.908;2023-04-30T01:16:40;9.26;83.34
74940;HTU21D;63505;45.226;37.908;2023-04-30T01:19:16;9.20;83.36
74940;HTU21D;63505;45.226;37.908;2023-04-30T01:21:46;9.14;83.45
74940;HTU21D;63505;45.226;37.908;2023-04-30T01:30:02;9.05;83.48
74940;HTU21D;63505;45.226;37.908;2023-04-30T01:32:29;9.04;83.49
74940;HTU21D;63505;45.226;37.908;2023-04-30T01:34:55;9.01;83.51
74940;HTU21D;63505;45.226;37.908;2023-04-30T01:40:07;8.98;83.61
74940;HTU21D;63505;45.226;37.908;2023-04-30T01:43:06;9.01;83.69
74940;HTU21D;63505;45.226;37.908;2023-04-30T01:45:44;9.03;83.71
74940;HTU21D;63505;45.226;37.908;2023-04-30T01:48:25;9.04;83.60
74940;HTU21D;63505;45.226;37.908;2023-04-30T01:51:09;9.06;83.52
74940;HTU21D;63505;45.226;37.908;2023-04-30T01:53:41;9.06;83.44
74940;HTU21D;63505;45.226;37.908;2023-04-30T01:56:11;9.02;83.42
74940;HTU21D;63505;45.226;37.908;2023-04-30T01:58:41;9.01;83.39
74940;HTU21D;63505;45.226;37.908;2023-04-30T02:01:24;8.96;83.42
74940;HTU21D;63505;45.226;37.908;2023-04-30T02:03:51;8.95;83.43
74940;HTU21D;63505;45.226;37.908;2023-04-30T02:06:17;8.93;83.44
74940;HTU21D;63505;45.226;37.908;2023-04-30T02:08:43;8.92;83.45
74940;HTU21D;63505;45.226;37.908;2023-04-30T02:11:09;8.91;83.49
74940;HTU21D;63505;45.226;37.908;2023-04-30T02:13:35;8.92;83.51
74940;HTU21D;63505;45.226;37.908;2023-04-30T02:16:01;8.92;83.55
74940;HTU21D;63505;45.226;37.908;2023-04-30T02:18:27;8.93;83.55
74940;HTU21D;63505;45.226;37.908;2023-04-30T02:20:52;8.96;83.55
74940;HTU21D;63505;45.226;37.908;2023-04-30T02:23:19;8.98;83.58
74940;HTU21D;63505;45.226;37.908;2023-04-30T02:25:44;9.02;83.62
74940;HTU21D;63505;45.226;37.908;2023-04-30T02:28:10;9.09;83.65
74940;HTU21D;63505;45.226;37.908;2023-04-30T02:30:36;9.18;83.69
74940;HTU21D;63505;45.226;37.908;2023-04-30T02:33:02;9.23;83.71
74940;HTU21D;63505;45.226;37.908;2023-04-30T02:35:28;9.31;83.75
74940;HTU21D;63505;45.226;37.908;2023-04-30T02:37:54;9.35;83.81
74940;HTU21D;63505;45.226;37.908;2023-04-30T02:40:20;9.39;83.81
74940;HTU21D;63505;45.226;37.908;2023-04-30T02:42:47;9.42;83.82
74940;HTU21D;63505;45.226;37.908;2023-04-30T02:45:14;9.44;83.89
74940;HTU21D;63505;45.226;37.908;2023-04-30T02:47:40;9.47;83.97
74940;HTU21D;63505;45.226;37.908;2023-04-30T02:50:06;9.49;84.07
74940;HTU21D;63505;45.226;37.908;2023-04-30T02:52:32;9.54;84.16
74940;HTU21D;63505;45.226;37.908;2023-04-30T02:54:58;9.59;84.21
74940;HTU21D;63505;45.226;37.908;2023-04-30T02:57:24;9.65;84.26
74940;HTU21D;63505;45.226;37.908;2023-04-30T02:59:50;9.70;84.32
74940;HTU21D;63505;45.226;37.908;2023-04-30T03:02:16;9.76;84.30
74940;HTU21D;63505;45.226;37.908;2023-04-30T03:04:45;9.80;84.32
74940;HTU21D;63505;45.226;37.908;2023-04-30T03:07:11;9.84;84.32
74940;HTU21D;63505;45.226;37.908;2023-04-30T03:09:37;9.90;84.39
74940;HTU21D;63505;45.226;37.908;2023-04-30T03:12:04;9.92;84.46
74940;HTU21D;63505;45.226;37.908;2023-04-30T03:14:30;9.94;84.48
74940;HTU21D;63505;45.226;37.908;2023-04-30T03:16:56;9.98;84.54
74940;HTU21D;63505;45.226;37.908;2023-04-30T03:19:21;9.99;84.58
74940;HTU21D;63505;45.226;37.908;2023-04-30T03:21:50;10.04;84.61
74940;HTU21D;63505;45.226;37.908;2023-04-30T03:24:17;10.07;84.61
74940;HTU21D;63505;45.226;37.908;2023-04-30T03:26:45;10.09;84.65
74940;HTU21D;63505;45.226;37.908;2023-04-30T03:29:11;10.13;84.71
74940;HTU21D;63505;45.226;37.908;2023-04-30T03:31:37;10.16;84.87
74940;HTU21D;63505;45.226;37.908;2023-04-30T03:34:03;10.21;84.99
74940;HTU21D;63505;45.226;37.908;2023-04-30T03:36:28;10.25;85.06
74940;HTU21D;63505;45.226;37.908;2023-04-30T03:38:54;10.29;85.09
74940;HTU21D;63505;45.226;37.908;2023-04-30T03:41:20;10.33;85.10
74940;HTU21D;63505;45.226;37.908;2023-04-30T03:43:47;10.35;85.09
74940;HTU21D;63505;45.226;37.908;2023-04-30T03:46:13;10.35;85.07
74940;HTU21D;63505;45.226;37.908;2023-04-30T03:48:39;10.38;85.13
74940;HTU21D;63505;45.226;37.908;2023-04-30T03:51:05;10.39;85.17
74940;HTU21D;63505;45.226;37.908;2023-04-30T03:53:31;10.40;85.20
74940;HTU21D;63505;45.226;37.908;2023-04-30T03:55:58;10.43;85.24
74940;HTU21D;63505;45.226;37.908;2023-04-30T03:58:24;10.45;85.22
74940;HTU21D;63505;45.226;37.908;2023-04-30T04:00:50;10.50;85.20
74940;HTU21D;63505;45.226;37.908;2023-04-30T04:03:17;10.54;85.22
74940;HTU21D;63505;45.226;37.908;2023-04-30T04:05:43;10.56;85.26
74940;HTU21D;63505;45.226;37.908;2023-04-30T04:08:09;10.58;85.36
74940;HTU21D;63505;45.226;37.908;2023-04-30T04:10:35;10.64;85.42
74940;HTU21D;63505;45.226;37.908;2023-04-30T04:13:01;10.69;85.42
74940;HTU21D;63505;45.226;37.908;2023-04-30T04:15:27;10.78;85.35
74940;HTU21D;63505;45.226;37.908;2023-04-30T04:17:53;10.84;85.25
74940;HTU21D;63505;45.226;37.908;2023-04-30T04:20:19;10.89;85.20
74940;HTU21D;63505;45.226;37.908;2023-04-30T04:22:45;10.97;85.15
74940;HTU21D;63505;45.226;37.908;2023-04-30T04:25:11;11.04;85.06
74940;HTU21D;63505;45.226;37.908;2023-04-30T04:27:38;11.11;84.93
74940;HTU21D;63505;45.226;37.908;2023-04-30T04:30:05;11.12;84.85
74940;HTU21D;63505;45.226;37.908;2023-04-30T04:32:31;11.14;84.81
74940;HTU21D;63505;45.226;37.908;2023-04-30T04:34:57;11.16;84.81
74940;HTU21D;63505;45.226;37.908;2023-04-30T04:37:23;11.18;84.81
74940;HTU21D;63505;45.226;37.908;2023-04-30T04:39:49;11.22;84.77
74940;HTU21D;63505;45.226;37.908;2023-04-30T04:42:15;11.28;84.71
74940;HTU21D;63505;45.226;37.908;2023-04-30T04:44:42;11.34;84.61
74940;HTU21D;63505;45.226;37.908;2023-04-30T04:47:08;11.43;84.52
74940;HTU21D;63505;45.226;37.908;2023-04-30T04:49:35;11.51;84.42
74940;HTU21D;63505;45.226;37.908;2023-04-30T04:52:00;11.57;84.35
74940;HTU21D;63505;45.226;37.908;2023-04-30T04:54:27;11.62;84.29
74940;HTU21D;63505;45.226;37.908;2023-04-30T04:56:53;11.66;84.29
74940;HTU21D;63505;45.226;37.908;2023-04-30T04:59:20;11.70;84.26
74940;HTU21D;63505;45.226;37.908;2023-04-30T05:01:48;11.73;84.19
74940;HTU21D;63505;45.226;37.908;2023-04-30T05:04:13;11.71;84.03
74940;HTU21D;63505;45.226;37.908;2023-04-30T05:06:39;11.68;83.82
74940;HTU21D;63505;45.226;37.908;2023-04-30T05:09:07;11.68;83.80
74940;HTU21D;63505;45.226;37.908;2023-04-30T05:11:34;11.68;83.80
74940;HTU21D;63505;45.226;37.908;2023-04-30T05:14:00;11.74;83.82
74940;HTU21D;63505;45.226;37.908;2023-04-30T05:16:26;11.82;83.79
74940;HTU21D;63505;45.226;37.908;2023-04-30T05:18:52;11.91;83.71
74940;HTU21D;63505;45.226;37.908;2023-04-30T05:21:17;11.99;83.59
74940;HTU21D;63505;45.226;37.908;2023-04-30T05:23:43;12.05;83.44
74940;HTU21D;63505;45.226;37.908;2023-04-30T05:26:09;12.15;83.17
74940;HTU21D;63505;45.226;37.908;2023-04-30T05:28:35;12.22;82.84
74940;HTU21D;63505;45.226;37.908;2023-04-30T05:31:01;12.33;82.65
74940;HTU21D;63505;45.226;37.908;2023-04-30T05:33:27;12.43;82.26
74940;HTU21D;63505;45.226;37.908;2023-04-30T05:35:53;12.50;81.87
74940;HTU21D;63505;45.226;37.908;2023-04-30T05:38:18;12.56;81.43
74940;HTU21D;63505;45.226;37.908;2023-04-30T05:40:44;12.62;81.23
74940;HTU21D;63505;45.226;37.908;2023-04-30T05:43:10;12.66;81.07
74940;HTU21D;63505;45.226;37.908;2023-04-30T05:45:36;12.72;80.93
74940;HTU21D;63505;45.226;37.908;2023-04-30T05:48:02;12.81;80.75
74940;HTU21D;63505;45.226;37.908;2023-04-30T05:50:28;12.88;80.07
74940;HTU21D;63505;45.226;37.908;2023-04-30T05:52:54;12.97;79.89
74940;HTU21D;63505;45.226;37.908;2023-04-30T05:55:20;13.04;79.78
74940;HTU21D;63505;45.226;37.908;2023-04-30T05:57:46;13.15;79.56
74940;HTU21D;63505;45.226;37.908;2023-04-30T06:00:12;13.21;79.24
74940;HTU21D;63505;45.226;37.908;2023-04-30T06:02:38;13.26;78.81
74940;HTU21D;63505;45.226;37.908;2023-04-30T06:05:06;13.29;78.58
74940;HTU21D;63505;45.226;37.908;2023-04-30T06:07:33;13.24;78.41
74940;HTU21D;63505;45.226;37.908;2023-04-30T06:09:58;13.17;77.79
74940;HTU21D;63505;45.226;37.908;2023-04-30T06:12:24;13.15;77.92
74940;HTU21D;63505;45.226;37.908;2023-04-30T06:14:51;13.08;77.57
74940;HTU21D;63505;45.226;37.908;2023-04-30T06:17:16;13.14;77.60
74940;HTU21D;63505;45.226;37.908;2023-04-30T06:19:42;13.16;77.44
74940;HTU21D;63505;45.226;37.908;2023-04-30T06:22:08;13.20;77.41
74940;HTU21D;63505;45.226;37.908;2023-04-30T06:24:34;13.25;77.28
74940;HTU21D;63505;45.226;37.908;2023-04-30T06:27:00;13.30;77.00
74940;HTU21D;63505;45.226;37.908;2023-04-30T06:29:27;13.39;76.92
74940;HTU21D;63505;45.226;37.908;2023-04-30T06:31:53;13.51;76.66
74940;HTU21D;63505;45.226;37.908;2023-04-30T06:34:18;13.55;76.37
74940;HTU21D;63505;45.226;37.908;2023-04-30T06:36:45;13.56;76.12
74940;HTU21D;63505;45.226;37.908;2023-04-30T06:39:15;13.63;75.93
74940;HTU21D;63505;45.226;37.908;2023-04-30T06:41:41;13.60;75.79
74940;HTU21D;63505;45.226;37.908;2023-04-30T06:44:08;13.63;75.81
74940;HTU21D;63505;45.226;37.908;2023-04-30T06:46:34;13.66;75.70
74940;HTU21D;63505;45.226;37.908;2023-04-30T06:49:00;13.67;75.66
74940;HTU21D;63505;45.226;37.908;2023-04-30T06:51:26;13.69;75.28
74940;HTU21D;63505;45.226;37.908;2023-04-30T06:53:52;13.81;74.99
74940;HTU21D;63505;45.226;37.908;2023-04-30T06:56:18;14.01;74.83
74940;HTU21D;63505;45.226;37.908;2023-04-30T06:58:46;14.14;74.38
74940;HTU21D;63505;45.226;37.908;2023-04-30T07:01:12;14.24;73.47
74940;HTU21D;63505;45.226;37.908;2023-04-30T07:03:38;14.33;73.18
74940;HTU21D;63505;45.226;37.908;2023-04-30T07:06:04;14.30;72.83
74940;HTU21D;63505;45.226;37.908;2023-04-30T07:08:30;14.22;72.51
74940;HTU21D;63505;45.226;37.908;2023-04-30T07:10:55;14.15;72.54
74940;HTU21D;63505;45.226;37.908;2023-04-30T07:13:21;14.13;72.40
74940;HTU21D;63505;45.226;37.908;2023-04-30T07:15:47;14.09;72.29
74940;HTU21D;63505;45.226;37.908;2023-04-30T07:18:13;14.03;72.03
74940;HTU21D;63505;45.226;37.908;2023-04-30T07:20:39;13.99;72.00
74940;HTU21D;63505;45.226;37.908;2023-04-30T07:23:05;13.96;71.88
74940;HTU21D;63505;45.226;37.908;2023-04-30T07:25:30;13.88;71.88
74940;HTU21D;63505;45.226;37.908;2023-04-30T07:27:56;13.85;72.05
74940;HTU21D;63505;45.226;37.908;2023-04-30T07:30:22;13.90;72.22
74940;HTU21D;63505;45.226;37.908;2023-04-30T07:32:48;13.91;71.95
74940;HTU21D;63505;45.226;37.908;2023-04-30T07:35:14;13.86;71.95
74940;HTU21D;63505;45.226;37.908;2023-04-30T07:37:40;13.81;71.55
74940;HTU21D;63505;45.226;37.908;2023-04-30T07:40:09;13.80;71.55
74940;HTU21D;63505;45.226;37.908;2023-04-30T07:42:40;13.81;71.06
74940;HTU21D;63505;45.226;37.908;2023-04-30T07:45:07;13.81;70.33
74940;HTU21D;63505;45.226;37.908;2023-04-30T07:47:33;13.82;70.18
74940;HTU21D;63505;45.226;37.908;2023-04-30T07:49:59;13.82;70.29
74940;HTU21D;63505;45.226;37.908;2023-04-30T07:52:25;13.84;70.46
74940;HTU21D;63505;45.226;37.908;2023-04-30T07:54:51;13.90;70.51
74940;HTU21D;63505;45.226;37.908;2023-04-30T07:57:16;14.03;70.54
74940;HTU21D;63505;45.226;37.908;2023-04-30T07:59:42;14.11;70.46
74940;HTU21D;63505;45.226;37.908;2023-04-30T08:02:08;14.13;70.47
74940;HTU21D;63505;45.226;37.908;2023-04-30T08:04:34;14.17;70.21
74940;HTU21D;63505;45.226;37.908;2023-04-30T08:07:00;14.21;69.29
74940;HTU21D;63505;45.226;37.908;2023-04-30T08:09:29;14.24;69.34
74940;HTU21D;63505;45.226;37.908;2023-04-30T08:11:55;14.24;69.49
74940;HTU21D;63505;45.226;37.908;2023-04-30T08:14:21;14.32;69.52
74940;HTU21D;63505;45.226;37.908;2023-04-30T08:16:47;14.34;69.20
74940;HTU21D;63505;45.226;37.908;2023-04-30T08:19:13;14.34;69.16
74940;HTU21D;63505;45.226;37.908;2023-04-30T08:21:39;14.35;69.36
74940;HTU21D;63505;45.226;37.908;2023-04-30T08:24:05;14.27;69.16
74940;HTU21D;63505;45.226;37.908;2023-04-30T08:26:30;14.24;69.02
74940;HTU21D;63505;45.226;37.908;2023-04-30T08:28:56;14.26;69.16
74940;HTU21D;63505;45.226;37.908;2023-04-30T08:31:22;14.37;69.06
74940;HTU21D;63505;45.226;37.908;2023-04-30T08:33:48;14.50;68.78
74940;HTU21D;63505;45.226;37.908;2023-04-30T08:36:14;14.67;68.57
74940;HTU21D;63505;45.226;37.908;2023-04-30T08:38:40;14.86;68.04
74940;HTU21D;63505;45.226;37.908;2023-04-30T08:41:12;14.95;67.33
74940;HTU21D;63505;45.226;37.908;2023-04-30T08:43:39;15.00;67.10
74940;HTU21D;63505;45.226;37.908;2023-04-30T08:46:05;15.11;67.03
74940;HTU21D;63505;45.226;37.908;2023-04-30T08:48:32;15.08;66.82
74940;HTU21D;63505;45.226;37.908;2023-04-30T08:51:02;15.00;67.01
74940;HTU21D;63505;45.226;37.908;2023-04-30T08:53:35;14.99;67.41
74940;HTU21D;63505;45.226;37.908;2023-04-30T08:56:03;15.00;67.55
74940;HTU21D;63505;45.226;37.908;2023-04-30T08:58:29;14.85;67.48
74940;HTU21D;63505;45.226;37.908;2023-04-30T09:00:57;14.72;67.61
74940;HTU21D;63505;45.226;37.908;2023-04-30T09:03:24;14.70;67.87
74940;HTU21D;63505;45.226;37.908;2023-04-30T09:05:50;14.64;68.04
74940;HTU21D;63505;45.226;37.908;2023-04-30T09:08:40;14.55;68.25
74940;HTU21D;63505;45.226;37.908;2023-04-30T09:11:29;14.43;68.46
74940;HTU21D;63505;45.226;37.908;2023-04-30T09:13:59;14.29;68.66
74940;HTU21D;63505;45.226;37.908;2023-04-30T09:16:26;14.27;68.87
74940;HTU21D;63505;45.226;37.908;2023-04-30T09:18:55;14.24;68.70
74940;HTU21D;63505;45.226;37.908;2023-04-30T09:21:35;14.29;68.86
74940;HTU21D;63505;45.226;37.908;2023-04-30T09:24:03;14.42;68.94
74940;HTU21D;63505;45.226;37.908;2023-04-30T09:26:35;14.65;68.60
74940;HTU21D;63505;45.226;37.908;2023-04-30T09:29:02;15.00;68.23
74940;HTU21D;63505;45.226;37.908;2023-04-30T09:31:36;15.21;67.68
74940;HTU21D;63505;45.226;37.908;2023-04-30T09:34:02;15.21;66.47
74940;HTU21D;63505;45.226;37.908;2023-04-30T09:36:28;15.15;66.18
74940;HTU21D;63505;45.226;37.908;2023-04-30T09:38:54;15.24;66.39
74940;HTU21D;63505;45.226;37.908;2023-04-30T09:41:25;15.53;66.34
74940;HTU21D;63505;45.226;37.908;2023-04-30T09:43:53;16.05;65.46
74940;HTU21D;63505;45.226;37.908;2023-04-30T09:46:19;16.40;64.50
74940;HTU21D;63505;45.226;37.908;2023-04-30T09:48:46;16.43;64.18
74940;HTU21D;63505;45.226;37.908;2023-04-30T09:51:13;16.24;63.89
74940;HTU21D;63505;45.226;37.908;2023-04-30T09:53:41;15.82;64.47
74940;HTU21D;63505;45.226;37.908;2023-04-30T09:56:10;15.53;65.26
74940;HTU21D;63505;45.226;37.908;2023-04-30T09:58:37;15.26;66.15
74940;HTU21D;63505;45.226;37.908;2023-04-30T10:01:04;15.06;66.63
74940;HTU21D;63505;45.226;37.908;2023-04-30T10:03:39;14.98;67.20
74940;HTU21D;63505;45.226;37.908;2023-04-30T10:06:06;14.95;67.40
74940;HTU21D;63505;45.226;37.908;2023-04-30T10:08:39;14.84;67.59
74940;HTU21D;63505;45.226;37.908;2023-04-30T10:11:09;14.80;67.80
74940;HTU21D;63505;45.226;37.908;2023-04-30T10:13:56;14.65;67.94
74940;HTU21D;63505;45.226;37.908;2023-04-30T10:16:56;14.54;68.03
74940;HTU21D;63505;45.226;37.908;2023-04-30T10:19:25;14.70;68.22
74940;HTU21D;63505;45.226;37.908;2023-04-30T10:21:55;14.98;68.30
74940;HTU21D;63505;45.226;37.908;2023-04-30T10:24:21;15.58;68.01
74940;HTU21D;63505;45.226;37.908;2023-04-30T10:26:47;16.00;67.28
74940;HTU21D;63505;45.226;37.908;2023-04-30T10:29:15;16.04;66.75
74940;HTU21D;63505;45.226;37.908;2023-04-30T10:31:44;16.06;66.53
74940;HTU21D;63505;45.226;37.908;2023-04-30T10:34:21;16.08;66.36
74940;HTU21D;63505;45.226;37.908;2023-04-30T10:36:55;15.81;66.55
74940;HTU21D;63505;45.226;37.908;2023-04-30T10:39:23;15.51;66.57
74940;HTU21D;63505;45.226;37.908;2023-04-30T10:42:05;15.23;67.03
74940;HTU21D;63505;45.226;37.908;2023-04-30T10:44:32;15.06;67.65
74940;HTU21D;63505;45.226;37.908;2023-04-30T10:47:03;14.95;68.04
74940;HTU21D;63505;45.226;37.908;2023-04-30T10:49:29;14.95;68.29
74940;HTU21D;63505;45.226;37.908;2023-04-30T10:51:58;15.02;68.26
74940;HTU21D;63505;45.226;37.908;2023-04-30T10:57:11;15.88;67.30
74940;HTU21D;63505;45.226;37.908;2023-04-30T10:59:41;16.11;66.45
74940;HTU21D;63505;45.226;37.908;2023-04-30T11:02:10;16.25;66.20
74940;HTU21D;63505;45.226;37.908;2023-04-30T11:05:08;16.08;65.59
74940;HTU21D;63505;45.226;37.908;2023-04-30T11:07:34;15.93;65.88
74940;HTU21D;63505;45.226;37.908;2023-04-30T11:10:00;15.82;66.04
74940;HTU21D;63505;45.226;37.908;2023-04-30T11:12:27;15.72;66.06
74940;HTU21D;63505;45.226;37.908;2023-04-30T11:15:11;15.60;66.20
74940;HTU21D;63505;45.226;37.908;2023-04-30T11:17:38;15.42;66.19
74940;HTU21D;63505;45.226;37.908;2023-04-30T11:20:04;15.22;66.46
74940;HTU21D;63505;45.226;37.908;2023-04-30T11:22:30;15.06;66.83
74940;HTU21D;63505;45.226;37.908;2023-04-30T11:25:11;14.91;67.27
74940;HTU21D;63505;45.226;37.908;2023-04-30T11:27:43;14.78;67.71
74940;HTU21D;63505;45.226;37.908;2023-04-30T11:30:14;14.77;68.02
74940;HTU21D;63505;45.226;37.908;2023-04-30T11:32:42;14.96;68.16
74940;HTU21D;63505;45.226;37.908;2023-04-30T11:35:10;15.22;67.78
74940;HTU21D;63505;45.226;37.908;2023-04-30T11:37:41;15.24;67.68
74940;HTU21D;63505;45.226;37.908;2023-04-30T11:40:11;15.13;68.01
74940;HTU21D;63505;45.226;37.908;2023-04-30T11:42:39;15.09;68.23
74940;HTU21D;63505;45.226;37.908;2023-04-30T11:45:13;14.97;68.42
74940;HTU21D;63505;45.226;37.908;2023-04-30T11:47:45;14.87;68.55
74940;HTU21D;63505;45.226;37.908;2023-04-30T11:50:14;14.82;68.72
74940;HTU21D;63505;45.226;37.908;2023-04-30T11:52:40;14.77;68.82
74940;HTU21D;63505;45.226;37.908;2023-04-30T11:55:12;14.80;68.87
74940;HTU21D;63505;45.226;37.908;2023-04-30T11:57:40;15.10;68.75
74940;HTU21D;63505;45.226;37.908;2023-04-30T12:00:09;15.60;68.07
74940;HTU21D;63505;45.226;37.908;2023-04-30T12:02:36;16.00;67.16
74940;HTU21D;63505;45.226;37.908;2023-04-30T12:05:02;16.31;65.88
74940;HTU21D;63505;45.226;37.908;2023-04-30T12:07:28;16.65;65.71
74940;HTU21D;63505;45.226;37.908;2023-04-30T12:09:54;16.89;64.99
74940;HTU21D;63505;45.226;37.908;2023-04-30T12:12:29;16.81;64.85
74940;HTU21D;63505;45.226;37.908;2023-04-30T12:14:56;16.75;64.76
74940;HTU21D;63505;45.226;37.908;2023-04-30T12:17:34;16.82;63.75
74940;HTU21D;63505;45.226;37.908;2023-04-30T12:20:01;16.70;64.02
74940;HTU21D;63505;45.226;37.908;2023-04-30T12:22:27;16.56;64.11
74940;HTU21D;63505;45.226;37.908;2023-04-30T12:24:58;16.33;64.02
74940;HTU21D;63505;45.226;37.908;2023-04-30T12:27:25;16.26;63.66
74940;HTU21D;63505;45.226;37.908;2023-04-30T12:29:52;16.21;64.05
74940;HTU21D;63505;45.226;37.908;2023-04-30T12:32:22;16.06;64.48
74940;HTU21D;63505;45.226;37.908;2023-04-30T12:34:48;16.19;64.55
74940;HTU21D;63505;45.226;37.908;2023-04-30T12:37:14;16.12;64.76
74940;HTU21D;63505;45.226;37.908;2023-04-30T12:39:41;15.93;64.73
74940;HTU21D;63505;45.226;37.908;2023-04-30T12:42:07;15.69;64.81
74940;HTU21D;63505;45.226;37.908;2023-04-30T12:44:44;15.47;65.29
74940;HTU21D;63505;45.226;37.908;2023-04-30T12:47:10;15.34;65.47
74940;HTU21D;63505;45.226;37.908;2023-04-30T12:49:36;15.37;65.56
74940;HTU21D;63505;45.226;37.908;2023-04-30T12:54:32;15.11;65.92
74940;HTU21D;63505;45.226;37.908;2023-04-30T12:57:07;15.00;66.41
74940;HTU21D;63505;45.226;37.908;2023-04-30T12:59:35;15.02;66.87
74940;HTU21D;63505;45.226;37.908;2023-04-30T13:04:31;15.13;65.80
74940;HTU21D;63505;45.226;37.908;2023-04-30T13:06:57;15.18;65.60
74940;HTU21D;63505;45.226;37.908;2023-04-30T13:09:23;15.17;65.63
74940;HTU21D;63505;45.226;37.908;2023-04-30T13:11:49;15.11;65.75
74940;HTU21D;63505;45.226;37.908;2023-04-30T13:14:15;15.06;66.00
74940;HTU21D;63505;45.226;37.908;2023-04-30T13:16:42;14.93;66.31
74940;HTU21D;63505;45.226;37.908;2023-04-30T13:19:08;14.73;66.43
74940;HTU21D;63505;45.226;37.908;2023-04-30T13:21:34;14.58;66.80
74940;HTU21D;63505;45.226;37.908;2023-04-30T13:24:00;14.51;67.09
74940;HTU21D;63505;45.226;37.908;2023-04-30T13:26:27;14.45;67.26
74940;HTU21D;63505;45.226;37.908;2023-04-30T13:28:53;14.44;67.35
74940;HTU21D;63505;45.226;37.908;2023-04-30T13:31:19;14.38;67.54
74940;HTU21D;63505;45.226;37.908;2023-04-30T13:33:45;14.32;67.73
74940;HTU21D;63505;45.226;37.908;2023-04-30T13:36:10;14.24;67.89
74940;HTU21D;63505;45.226;37.908;2023-04-30T13:38:36;14.19;68.14
74940;HTU21D;63505;45.226;37.908;2023-04-30T13:41:04;14.20;68.30
74940;HTU21D;63505;45.226;37.908;2023-04-30T13:43:30;14.25;68.34
74940;HTU21D;63505;45.226;37.908;2023-04-30T13:45:56;14.25;68.34
74940;HTU21D;63505;45.226;37.908;2023-04-30T13:48:24;14.29;68.52
74940;HTU21D;63505;45.226;37.908;2023-04-30T13:50:53;14.34;68.62
74940;HTU21D;63505;45.226;37.908;2023-04-30T13:53:18;14.32;68.68
74940;HTU21D;63505;45.226;37.908;2023-04-30T13:55:44;14.25;68.84
74940;HTU21D;63505;45.226;37.908;2023-04-30T13:58:11;14.14;69.17
74940;HTU21D;63505;45.226;37.908;2023-04-30T14:00:37;14.05;69.46
74940;HTU21D;63505;45.226;37.908;2023-04-30T14:03:03;13.97;69.73
74940;HTU21D;63505;45.226;37.908;2023-04-30T14:05:29;13.92;69.92
74940;HTU21D;63505;45.226;37.908;2023-04-30T14:07:55;13.86;70.05
74940;HTU21D;63505;45.226;37.908;2023-04-30T14:10:20;13.84;70.26
74940;HTU21D;63505;45.226;37.908;2023-04-30T14:12:47;13.82;70.41
74940;HTU21D;63505;45.226;37.908;2023-04-30T14:15:13;13.90;70.54
74940;HTU21D;63505;45.226;37.908;2023-04-30T14:17:39;13.96;70.52
74940;HTU21D;63505;45.226;37.908;2023-04-30T14:20:05;14.00;70.55
74940;HTU21D;63505;45.226;37.908;2023-04-30T14:22:31;14.12;70.81
74940;HTU21D;63505;45.226;37.908;2023-04-30T14:24:59;14.33;70.61
74940;HTU21D;63505;45.226;37.908;2023-04-30T14:27:25;14.25;69.93
74940;HTU21D;63505;45.226;37.908;2023-04-30T14:29:50;14.14;69.91
74940;HTU21D;63505;45.226;37.908;2023-04-30T14:32:16;14.07;70.11
74940;HTU21D;63505;45.226;37.908;2023-04-30T14:34:42;14.03;70.24
74940;HTU21D;63505;45.226;37.908;2023-04-30T14:37:09;13.94;70.21
74940;HTU21D;63505;45.226;37.908;2023-04-30T14:39:35;13.92;70.23
74940;HTU21D;63505;45.226;37.908;2023-04-30T14:42:00;13.93;70.24
74940;HTU21D;63505;45.226;37.908;2023-04-30T14:44:27;13.89;70.32
74940;HTU21D;63505;45.226;37.908;2023-04-30T14:46:53;13.84;70.45
74940;HTU21D;63505;45.226;37.908;2023-04-30T14:49:19;13.82;70.57
74940;HTU21D;63505;45.226;37.908;2023-04-30T14:51:49;13.76;70.75
74940;HTU21D;63505;45.226;37.908;2023-04-30T14:54:15;13.68;70.95
74940;HTU21D;63505;45.226;37.908;2023-04-30T14:56:41;13.64;71.11
74940;HTU21D;63505;45.226;37.908;2023-04-30T14:59:09;13.59;71.45
74940;HTU21D;63505;45.226;37.908;2023-04-30T15:01:35;13.62;71.77
74940;HTU21D;63505;45.226;37.908;2023-04-30T15:04:01;13.74;71.96
74940;HTU21D;63505;45.226;37.908;2023-04-30T15:06:27;13.83;71.87
74940;HTU21D;63505;45.226;37.908;2023-04-30T15:08:52;13.88;71.85
74940;HTU21D;63505;45.226;37.908;2023-04-30T15:11:18;13.86;71.82
74940;HTU21D;63505;45.226;37.908;2023-04-30T15:13:44;13.83;71.86
74940;HTU21D;63505;45.226;37.908;2023-04-30T15:16:10;13.76;71.96
74940;HTU21D;63505;45.226;37.908;2023-04-30T15:18:37;13.69;72.06
74940;HTU21D;63505;45.226;37.908;2023-04-30T15:21:03;13.65;72.13
74940;HTU21D;63505;45.226;37.908;2023-04-30T15:23:28;13.62;72.18
74940;HTU21D;63505;45.226;37.908;2023-04-30T15:25:55;13.60;72.25